sensor_id;sensor_type;location;lat;lon;timestamp;pressure;altitude;pressure_sealevel;temperature;humidity
13767;BME280;47980;48.794;9.176;2023-04-23T00:00:31;97594.88;;;15.33;67.50
13767;BME280;47980;48.794;9.176;2023-04-23T00:03:06;97590.38;;;15.41;66.47
13767;BME280;47980;48.794;9.176;2023-04-23T00:05:39;97597.97;;;15.39;67.31
13767;BME280;47980;48.794;9.176;2023-04-23T00:08:12;97602.59;;;15.42;66.03
13767;BME280;47980;48.794;9.176;2023-04-23T00:10:46;97609.09;;;15.45;66.51
13767;BME280;47980;48.794;9.176;2023-04-23T00:13:18;97601.81;;;15.41;66.64
13767;BME280;47980;48.794;9.176;2023-04-23T00:15:50;97606.34;;;15.34;67.00
13767;BME280;47980;48.794;9.176;2023-04-23T00:18:23;97597.16;;;15.35;67.16
13767;BME280;47980;48.794;9.176;2023-04-23T00:20:54;97602.63;;;15.46;67.27
13767;BME280;47980;48.794;9.176;2023-04-23T00:23:27;97601.09;;;15.45;67.03
13767;BME280;47980;48.794;9.176;2023-04-23T00:25:59;97599.66;;;15.54;66.19
13767;BME280;47980;48.794;9.176;2023-04-23T00:28:30;97604.19;;;15.50;67.66
13767;BME280;47980;48.794;9.176;2023-04-23T00:31:02;97608.72;;;15.46;68.01
13767;BME280;47980;48.794;9.176;2023-04-23T00:33:35;97602.88;;;15.30;69.41
13767;BME280;47980;48.794;9.176;2023-04-23T00:36:07;97603.25;;;15.32;69.54
13767;BME280;47980;48.794;9.176;2023-04-23T00:38:39;97608.09;;;15.19;71.13
13767;BME280;47980;48.794;9.176;2023-04-23T00:41:10;97614.81;;;15.06;71.77
13767;BME280;47980;48.794;9.176;2023-04-23T00:43:43;97608.88;;;15.20;71.90
13767;BME280;47980;48.794;9.176;2023-04-23T00:46:15;97615.00;;;15.24;73.12
13767;BME280;47980;48.794;9.176;2023-04-23T00:48:49;97613.53;;;15.26;71.16
13767;BME280;47980;48.794;9.176;2023-04-23T00:51:21;97624.81;;;15.12;72.66
13767;BME280;47980;48.794;9.176;2023-04-23T00:53:53;97624.81;;;15.12;73.22
13767;BME280;47980;48.794;9.176;2023-04-23T00:56:26;97627.91;;;15.14;73.25
13767;BME280;47980;48.794;9.176;2023-04-23T00:58:58;97626.03;;;15.19;72.71
13767;BME280;47980;48.794;9.176;2023-04-23T01:01:32;97625.50;;;15.06;74.64
13767;BME280;47980;48.794;9.176;2023-04-23T01:04:06;97633.50;;;15.02;74.25
13767;BME280;47980;48.794;9.176;2023-04-23T01:06:40;97632.72;;;15.02;74.35
13767;BME280;47980;48.794;9.176;2023-04-23T01:09:12;97634.59;;;14.98;75.29
13767;BME280;47980;48.794;9.176;2023-04-23T01:11:45;97623.22;;;15.04;74.99
13767;BME280;47980;48.794;9.176;2023-04-23T01:14:17;97622.84;;;15.06;74.64
13767;BME280;47980;48.794;9.176;2023-04-23T01:16:49;97635.72;;;14.97;74.69
13767;BME280;47980;48.794;9.176;2023-04-23T01:19:23;97633.78;;;14.93;77.23
13767;BME280;47980;48.794;9.176;2023-04-23T01:21:55;97638.75;;;14.95;75.95
13767;BME280;47980;48.794;9.176;2023-04-23T01:24:31;97636.47;;;14.93;76.35
13767;BME280;47980;48.794;9.176;2023-04-23T01:27:03;97640.50;;;14.80;76.80
13767;BME280;47980;48.794;9.176;2023-04-23T01:29:35;97642.84;;;14.85;75.42
13767;BME280;47980;48.794;9.176;2023-04-23T01:32:08;97641.72;;;14.86;76.16
13767;BME280;47980;48.794;9.176;2023-04-23T01:34:40;97642.81;;;14.82;75.70
13767;BME280;47980;48.794;9.176;2023-04-23T01:37:12;97650.50;;;14.87;75.99
13767;BME280;47980;48.794;9.176;2023-04-23T01:39:45;97651.22;;;14.84;75.38
13767;BME280;47980;48.794;9.176;2023-04-23T01:42:17;97646.69;;;14.88;75.89
13767;BME280;47980;48.794;9.176;2023-04-23T01:44:49;97648.50;;;14.80;76.85
13767;BME280;47980;48.794;9.176;2023-04-23T01:47:21;97651.22;;;14.84;76.44
13767;BME280;47980;48.794;9.176;2023-04-23T01:49:53;97646.97;;;14.79;76.20
13767;BME280;47980;48.794;9.176;2023-04-23T01:52:25;97644.03;;;14.58;77.38
13767;BME280;47980;48.794;9.176;2023-04-23T01:54:58;97645.31;;;14.67;78.35
13767;BME280;47980;48.794;9.176;2023-04-23T01:57:31;97650.78;;;14.78;76.64
13767;BME280;47980;48.794;9.176;2023-04-23T02:00:07;97643.03;;;14.69;78.31
13767;BME280;47980;48.794;9.176;2023-04-23T02:02:42;97661.63;;;14.62;78.38
13767;BME280;47980;48.794;9.176;2023-04-23T02:05:16;97655.59;;;14.69;79.13
13767;BME280;47980;48.794;9.176;2023-04-23T02:07:49;97655.50;;;14.62;78.68
13767;BME280;47980;48.794;9.176;2023-04-23T02:10:22;97653.66;;;14.66;78.47
13767;BME280;47980;48.794;9.176;2023-04-23T02:12:55;97651.31;;;14.61;79.47
13767;BME280;47980;48.794;9.176;2023-04-23T02:15:27;97665.38;;;14.58;79.13
13767;BME280;47980;48.794;9.176;2023-04-23T02:17:59;97670.88;;;14.68;80.58
13767;BME280;47980;48.794;9.176;2023-04-23T02:20:31;97682.31;;;14.69;80.39
13767;BME280;47980;48.794;9.176;2023-04-23T02:23:02;97683.69;;;14.59;80.59
13767;BME280;47980;48.794;9.176;2023-04-23T02:25:35;97678.88;;;14.42;82.07
13767;BME280;47980;48.794;9.176;2023-04-23T02:28:08;97681.78;;;14.33;83.81
13767;BME280;47980;48.794;9.176;2023-04-23T02:30:42;97677.25;;;14.37;83.68
13767;BME280;47980;48.794;9.176;2023-04-23T02:33:15;97678.44;;;14.40;84.41
13767;BME280;47980;48.794;9.176;2023-04-23T02:35:48;97673.81;;;14.37;85.57
13767;BME280;47980;48.794;9.176;2023-04-23T02:38:20;97674.44;;;14.27;86.47
13767;BME280;47980;48.794;9.176;2023-04-23T02:40:53;97678.09;;;14.15;88.39
13767;BME280;47980;48.794;9.176;2023-04-23T02:43:24;97665.88;;;14.14;88.27
13767;BME280;47980;48.794;9.176;2023-04-23T02:45:56;97670.78;;;14.12;89.86
13767;BME280;47980;48.794;9.176;2023-04-23T02:48:27;97664.34;;;14.13;89.96
13767;BME280;47980;48.794;9.176;2023-04-23T02:50:59;97657.41;;;14.08;92.75
13767;BME280;47980;48.794;9.176;2023-04-23T02:53:32;97650.13;;;14.05;92.13
13767;BME280;47980;48.794;9.176;2023-04-23T02:56:05;97649.66;;;14.00;92.45
13767;BME280;47980;48.794;9.176;2023-04-23T02:58:37;97656.56;;;14.04;95.12
13767;BME280;47980;48.794;9.176;2023-04-23T03:01:08;97666.03;;;13.98;96.95
13767;BME280;47980;48.794;9.176;2023-04-23T03:03:40;97673.97;;;13.94;98.89
13767;BME280;47980;48.794;9.176;2023-04-23T03:06:12;97669.22;;;13.84;99.31
13767;BME280;47980;48.794;9.176;2023-04-23T03:08:44;97681.50;;;13.89;100.00
13767;BME280;47980;48.794;9.176;2023-04-23T03:11:17;97679.13;;;13.84;100.00
13767;BME280;47980;48.794;9.176;2023-04-23T03:13:48;97679.59;;;13.66;100.00
13767;BME280;47980;48.794;9.176;2023-04-23T03:16:20;97667.16;;;13.74;99.83
13767;BME280;47980;48.794;9.176;2023-04-23T03:18:51;97674.38;;;13.73;100.00
13767;BME280;47980;48.794;9.176;2023-04-23T03:21:23;97671.22;;;13.68;100.00
13767;BME280;47980;48.794;9.176;2023-04-23T03:23:55;97665.13;;;13.67;100.00
13767;BME280;47980;48.794;9.176;2023-04-23T03:26:28;97660.94;;;13.66;99.63
13767;BME280;47980;48.794;9.176;2023-04-23T03:28:59;97659.88;;;13.71;100.00
13767;BME280;47980;48.794;9.176;2023-04-23T03:31:31;97658.28;;;13.66;100.00
13767;BME280;47980;48.794;9.176;2023-04-23T03:34:03;97662.78;;;13.62;100.00
13767;BME280;47980;48.794;9.176;2023-04-23T03:36:34;97658.44;;;13.54;100.00
13767;BME280;47980;48.794;9.176;2023-04-23T03:39:06;97652.44;;;13.61;100.00
13767;BME280;47980;48.794;9.176;2023-04-23T03:41:39;97659.28;;;13.58;100.00
13767;BME280;47980;48.794;9.176;2023-04-23T03:44:10;97662.16;;;13.49;100.00
13767;BME280;47980;48.794;9.176;2023-04-23T03:46:42;97657.66;;;13.54;100.00
13767;BME280;47980;48.794;9.176;2023-04-23T03:49:13;97655.81;;;13.58;100.00
13767;BME280;47980;48.794;9.176;2023-04-23T03:51:45;97648.06;;;13.49;100.00
13767;BME280;47980;48.794;9.176;2023-04-23T03:54:17;97650.69;;;13.45;100.00
13767;BME280;47980;48.794;9.176;2023-04-23T03:56:50;97651.88;;;13.48;100.00
13767;BME280;47980;48.794;9.176;2023-04-23T03:59:22;97657.53;;;13.46;100.00
13767;BME280;47980;48.794;9.176;2023-04-23T04:01:53;97667.28;;;13.58;100.00
13767;BME280;47980;48.794;9.176;2023-04-23T04:04:25;97677.56;;;13.60;100.00
13767;BME280;47980;48.794;9.176;2023-04-23T04:06:57;97681.44;;;13.62;100.00
13767;BME280;47980;48.794;9.176;2023-04-23T04:09:30;97680.66;;;13.62;100.00
13767;BME280;47980;48.794;9.176;2023-04-23T04:12:03;97683.47;;;13.49;100.00
13767;BME280;47980;48.794;9.176;2023-04-23T04:14:34;97680.13;;;13.53;100.00
13767;BME280;47980;48.794;9.176;2023-04-23T04:17:06;97683.22;;;13.55;100.00
13767;BME280;47980;48.794;9.176;2023-04-23T04:19:38;97680.81;;;13.49;100.00
13767;BME280;47980;48.794;9.176;2023-04-23T04:22:09;97672.41;;;13.47;100.00
13767;BME280;47980;48.794;9.176;2023-04-23T04:24:41;97676.94;;;13.24;100.00
13767;BME280;47980;48.794;9.176;2023-04-23T04:27:14;97666.53;;;13.19;100.00
13767;BME280;47980;48.794;9.176;2023-04-23T04:29:46;97670.53;;;13.09;100.00
13767;BME280;47980;48.794;9.176;2023-04-23T04:32:17;97677.63;;;13.01;100.00
13767;BME280;47980;48.794;9.176;2023-04-23T04:34:49;97676.84;;;13.01;100.00
13767;BME280;47980;48.794;9.176;2023-04-23T04:37:22;97684.84;;;13.01;100.00
13767;BME280;47980;48.794;9.176;2023-04-23T04:39:53;97684.06;;;13.00;100.00
13767;BME280;47980;48.794;9.176;2023-04-23T04:42:26;97682.56;;;13.03;100.00
13767;BME280;47980;48.794;9.176;2023-04-23T04:44:58;97682.66;;;13.07;100.00
13767;BME280;47980;48.794;9.176;2023-04-23T04:47:30;97687.97;;;13.07;100.00
13767;BME280;47980;48.794;9.176;2023-04-23T04:50:02;97681.94;;;13.10;100.00
13767;BME280;47980;48.794;9.176;2023-04-23T04:52:34;97681.53;;;13.08;100.00
13767;BME280;47980;48.794;9.176;2023-04-23T04:55:06;97686.50;;;13.09;100.00
13767;BME280;47980;48.794;9.176;2023-04-23T04:57:39;97677.06;;;13.12;100.00
13767;BME280;47980;48.794;9.176;2023-04-23T05:00:22;97684.84;;;13.01;100.00
13767;BME280;47980;48.794;9.176;2023-04-23T05:02:54;97682.03;;;13.13;100.00
13767;BME280;47980;48.794;9.176;2023-04-23T05:05:26;97680.09;;;13.30;100.00
13767;BME280;47980;48.794;9.176;2023-04-23T05:07:58;97680.75;;;13.46;100.00
13767;BME280;47980;48.794;9.176;2023-04-23T05:10:31;97678.72;;;13.59;100.00
13767;BME280;47980;48.794;9.176;2023-04-23T05:13:04;97677.50;;;13.56;100.00
13767;BME280;47980;48.794;9.176;2023-04-23T05:15:35;97683.09;;;13.70;100.00
13767;BME280;47980;48.794;9.176;2023-04-23T05:18:08;97681.38;;;13.82;100.00
13767;BME280;47980;48.794;9.176;2023-04-23T05:20:40;97676.69;;;13.98;100.00
13767;BME280;47980;48.794;9.176;2023-04-23T05:23:12;97674.66;;;14.14;97.65
13767;BME280;47980;48.794;9.176;2023-04-23T05:25:43;97675.03;;;14.39;95.01
13767;BME280;47980;48.794;9.176;2023-04-23T05:28:16;97672.69;;;14.61;93.32
13767;BME280;47980;48.794;9.176;2023-04-23T05:30:48;97676.06;;;14.58;91.89
13767;BME280;47980;48.794;9.176;2023-04-23T05:33:20;97680.09;;;14.75;91.99
13767;BME280;47980;48.794;9.176;2023-04-23T05:35:51;97685.06;;;14.76;91.94
13767;BME280;47980;48.794;9.176;2023-04-23T05:38:23;97684.50;;;14.60;91.33
13767;BME280;47980;48.794;9.176;2023-04-23T05:40:55;97684.13;;;14.61;91.10
13767;BME280;47980;48.794;9.176;2023-04-23T05:43:28;97673.34;;;14.54;91.53
13767;BME280;47980;48.794;9.176;2023-04-23T05:46:00;97685.50;;;14.52;91.55
13767;BME280;47980;48.794;9.176;2023-04-23T05:48:33;97685.72;;;14.96;90.42
13767;BME280;47980;48.794;9.176;2023-04-23T05:51:05;97676.72;;;15.11;88.64
13767;BME280;47980;48.794;9.176;2023-04-23T05:53:36;97678.53;;;15.37;85.23
13767;BME280;47980;48.794;9.176;2023-04-23T05:56:08;97680.66;;;15.58;83.49
13767;BME280;47980;48.794;9.176;2023-04-23T05:58:41;97688.91;;;15.80;82.25
13767;BME280;47980;48.794;9.176;2023-04-23T06:01:12;97685.72;;;15.67;82.85
13767;BME280;47980;48.794;9.176;2023-04-23T06:03:44;97684.56;;;15.31;81.75
13767;BME280;47980;48.794;9.176;2023-04-23T06:06:16;97683.91;;;15.41;83.03
13767;BME280;47980;48.794;9.176;2023-04-23T06:08:47;97685.97;;;15.55;84.36
13767;BME280;47980;48.794;9.176;2023-04-23T06:11:20;97690.13;;;15.52;82.86
13767;BME280;47980;48.794;9.176;2023-04-23T06:13:53;97684.72;;;15.45;83.13
13767;BME280;47980;48.794;9.176;2023-04-23T06:16:25;97685.97;;;15.55;81.80
13767;BME280;47980;48.794;9.176;2023-04-23T06:18:57;97682.31;;;15.70;81.78
13767;BME280;47980;48.794;9.176;2023-04-23T06:21:28;97701.94;;;15.48;82.24
13767;BME280;47980;48.794;9.176;2023-04-23T06:24:00;97691.69;;;15.20;83.71
13767;BME280;47980;48.794;9.176;2023-04-23T06:26:32;97694.56;;;14.74;85.18
13767;BME280;47980;48.794;9.176;2023-04-23T06:29:05;97694.94;;;15.02;86.21
13767;BME280;47980;48.794;9.176;2023-04-23T06:31:37;97685.53;;;14.82;84.88
13767;BME280;47980;48.794;9.176;2023-04-23T06:34:08;97697.78;;;15.16;85.27
13767;BME280;47980;48.794;9.176;2023-04-23T06:36:40;97686.09;;;15.32;83.40
13767;BME280;47980;48.794;9.176;2023-04-23T06:39:12;97688.38;;;15.30;82.46
13767;BME280;47980;48.794;9.176;2023-04-23T06:41:44;97681.75;;;15.54;81.79
13767;BME280;47980;48.794;9.176;2023-04-23T06:44:19;97686.56;;;15.37;81.48
13767;BME280;47980;48.794;9.176;2023-04-23T06:46:53;97675.66;;;15.57;80.48
13767;BME280;47980;48.794;9.176;2023-04-23T06:49:24;97675.22;;;15.48;80.28
13767;BME280;47980;48.794;9.176;2023-04-23T06:51:56;97674.28;;;15.70;79.73
13767;BME280;47980;48.794;9.176;2023-04-23T06:54:28;97671.88;;;15.99;79.54
13767;BME280;47980;48.794;9.176;2023-04-23T06:57:00;97660.97;;;16.29;75.57
13767;BME280;47980;48.794;9.176;2023-04-23T06:59:33;97659.41;;;16.21;75.52
13767;BME280;47980;48.794;9.176;2023-04-23T07:02:04;97652.88;;;16.84;74.12
13767;BME280;47980;48.794;9.176;2023-04-23T07:04:36;97650.72;;;17.22;70.20
13767;BME280;47980;48.794;9.176;2023-04-23T07:07:07;97649.19;;;17.24;70.27
13767;BME280;47980;48.794;9.176;2023-04-23T07:09:39;97645.59;;;16.84;72.77
13767;BME280;47980;48.794;9.176;2023-04-23T07:12:10;97638.31;;;16.78;71.76
13767;BME280;47980;48.794;9.176;2023-04-23T07:14:44;97642.56;;;16.82;73.82
13767;BME280;47980;48.794;9.176;2023-04-23T07:17:15;97646.78;;;16.87;70.72
13767;BME280;47980;48.794;9.176;2023-04-23T07:19:47;97647.00;;;16.57;71.17
13767;BME280;47980;48.794;9.176;2023-04-23T07:22:18;97648.22;;;16.08;73.56
13767;BME280;47980;48.794;9.176;2023-04-23T07:24:50;97647.47;;;15.63;74.94
13767;BME280;47980;48.794;9.176;2023-04-23T07:27:22;97648.50;;;16.54;71.79
13767;BME280;47980;48.794;9.176;2023-04-23T07:29:55;97649.72;;;15.61;74.53
13767;BME280;47980;48.794;9.176;2023-04-23T07:32:26;97645.47;;;15.56;76.20
13767;BME280;47980;48.794;9.176;2023-04-23T07:34:58;97639.66;;;15.84;74.99
13767;BME280;47980;48.794;9.176;2023-04-23T07:37:30;97647.19;;;15.75;73.41
13767;BME280;47980;48.794;9.176;2023-04-23T07:40:02;97648.09;;;15.94;73.82
13767;BME280;47980;48.794;9.176;2023-04-23T07:42:34;97648.19;;;16.04;72.41
13767;BME280;47980;48.794;9.176;2023-04-23T07:45:09;97640.28;;;16.22;73.08
13767;BME280;47980;48.794;9.176;2023-04-23T07:47:40;97638.59;;;16.00;73.32
13767;BME280;47980;48.794;9.176;2023-04-23T07:50:12;97631.72;;;15.95;73.93
13767;BME280;47980;48.794;9.176;2023-04-23T07:52:44;97640.03;;;15.86;70.15
13767;BME280;47980;48.794;9.176;2023-04-23T07:55:15;97640.69;;;15.69;72.51
13767;BME280;47980;48.794;9.176;2023-04-23T07:57:49;97638.13;;;16.42;68.32
13767;BME280;47980;48.794;9.176;2023-04-23T08:00:22;97630.28;;;16.16;68.39
13767;BME280;47980;48.794;9.176;2023-04-23T08:02:54;97629.50;;;16.77;67.19
13767;BME280;47980;48.794;9.176;2023-04-23T08:05:25;97631.63;;;16.43;69.80
13767;BME280;47980;48.794;9.176;2023-04-23T08:07:57;97631.47;;;16.95;67.78
13767;BME280;47980;48.794;9.176;2023-04-23T08:10:28;97636.91;;;17.16;65.55
13767;BME280;47980;48.794;9.176;2023-04-23T08:13:01;97621.25;;;17.36;65.96
13767;BME280;47980;48.794;9.176;2023-04-23T08:15:34;97613.25;;;16.38;68.32
13767;BME280;47980;48.794;9.176;2023-04-23T08:18:05;97611.03;;;16.61;66.58
13767;BME280;47980;48.794;9.176;2023-04-23T08:20:37;97609.53;;;16.60;67.88
13767;BME280;47980;48.794;9.176;2023-04-23T08:23:08;97608.47;;;16.83;66.48
13767;BME280;47980;48.794;9.176;2023-04-23T08:25:40;97609.72;;;17.14;64.68
13767;BME280;47980;48.794;9.176;2023-04-23T08:28:11;97615.53;;;17.48;64.33
13767;BME280;47980;48.794;9.176;2023-04-23T08:30:45;97613.59;;;17.60;63.21
13767;BME280;47980;48.794;9.176;2023-04-23T08:33:16;97614.00;;;17.40;63.70
13767;BME280;47980;48.794;9.176;2023-04-23T08:35:48;97604.41;;;17.53;63.71
13767;BME280;47980;48.794;9.176;2023-04-23T08:38:19;97604.78;;;17.48;64.17
13767;BME280;47980;48.794;9.176;2023-04-23T08:40:56;97598.22;;;17.14;64.24
13767;BME280;47980;48.794;9.176;2023-04-23T08:43:32;97605.44;;;16.88;65.37
13767;BME280;47980;48.794;9.176;2023-04-23T08:46:11;97596.00;;;17.55;64.01
13767;BME280;47980;48.794;9.176;2023-04-23T08:48:44;97598.31;;;17.78;62.83
13767;BME280;47980;48.794;9.176;2023-04-23T08:51:17;97600.19;;;18.13;60.34
13767;BME280;47980;48.794;9.176;2023-04-23T08:53:50;97595.59;;;17.96;59.19
13767;BME280;47980;48.794;9.176;2023-04-23T08:56:23;97602.06;;;18.31;60.64
13767;BME280;47980;48.794;9.176;2023-04-23T08:58:55;97593.59;;;18.43;59.42
13767;BME280;47980;48.794;9.176;2023-04-23T09:01:28;97600.47;;;18.47;58.15
13767;BME280;47980;48.794;9.176;2023-04-23T09:04:00;97594.28;;;18.61;57.53
13767;BME280;47980;48.794;9.176;2023-04-23T09:06:32;97589.19;;;18.92;58.05
13767;BME280;47980;48.794;9.176;2023-04-23T09:09:05;97591.81;;;18.99;55.34
13767;BME280;47980;48.794;9.176;2023-04-23T09:11:37;97590.41;;;18.73;55.48
13767;BME280;47980;48.794;9.176;2023-04-23T09:14:09;97584.31;;;18.55;56.87
13767;BME280;47980;48.794;9.176;2023-04-23T09:16:44;97579.25;;;18.82;56.38
13767;BME280;47980;48.794;9.176;2023-04-23T09:19:16;97573.16;;;18.67;57.32
13767;BME280;47980;48.794;9.176;2023-04-23T09:21:49;97572.25;;;18.95;58.29
13767;BME280;47980;48.794;9.176;2023-04-23T09:24:21;97563.63;;;18.44;56.07
13767;BME280;47980;48.794;9.176;2023-04-23T09:26:53;97575.78;;;18.88;54.72
13767;BME280;47980;48.794;9.176;2023-04-23T09:29:26;97561.59;;;18.70;53.05
13767;BME280;47980;48.794;9.176;2023-04-23T09:32:05;97558.72;;;19.13;53.07
13767;BME280;47980;48.794;9.176;2023-04-23T09:34:37;97555.28;;;19.64;52.07
13767;BME280;47980;48.794;9.176;2023-04-23T09:37:09;97552.44;;;19.30;52.40
13767;BME280;47980;48.794;9.176;2023-04-23T09:39:41;97543.97;;;19.32;51.61
13767;BME280;47980;48.794;9.176;2023-04-23T09:42:14;97540.91;;;20.19;50.71
13767;BME280;47980;48.794;9.176;2023-04-23T09:44:55;97532.63;;;20.68;49.39
13767;BME280;47980;48.794;9.176;2023-04-23T09:47:30;97541.63;;;19.86;50.28
13767;BME280;47980;48.794;9.176;2023-04-23T09:50:03;97532.91;;;20.12;50.45
13767;BME280;47980;48.794;9.176;2023-04-23T09:52:37;97533.94;;;20.56;47.92
13767;BME280;47980;48.794;9.176;2023-04-23T09:55:09;97525.47;;;20.85;46.91
13767;BME280;47980;48.794;9.176;2023-04-23T09:57:41;97521.09;;;21.69;45.35
13767;BME280;47980;48.794;9.176;2023-04-23T10:00:14;97524.91;;;20.97;46.09
13767;BME280;47980;48.794;9.176;2023-04-23T10:02:49;97521.75;;;20.44;46.11
13767;BME280;47980;48.794;9.176;2023-04-23T10:05:21;97519.63;;;20.63;45.68
13767;BME280;47980;48.794;9.176;2023-04-23T10:07:56;97510.66;;;20.97;46.18
13767;BME280;47980;48.794;9.176;2023-04-23T10:10:28;97505.53;;;20.52;46.97
13767;BME280;47980;48.794;9.176;2023-04-23T10:13:00;97507.59;;;20.67;45.69
13767;BME280;47980;48.794;9.176;2023-04-23T10:15:32;97501.31;;;21.28;44.52
13767;BME280;47980;48.794;9.176;2023-04-23T10:18:06;97494.53;;;21.87;43.69
13767;BME280;47980;48.794;9.176;2023-04-23T10:20:38;97498.69;;;21.48;43.72
13767;BME280;47980;48.794;9.176;2023-04-23T10:23:11;97496.81;;;21.22;44.60
13767;BME280;47980;48.794;9.176;2023-04-23T10:25:43;97488.72;;;21.45;44.47
13767;BME280;47980;48.794;9.176;2023-04-23T10:28:17;97478.00;;;20.91;44.55
13767;BME280;47980;48.794;9.176;2023-04-23T10:30:52;97479.13;;;20.94;45.86
13767;BME280;47980;48.794;9.176;2023-04-23T10:33:27;97480.47;;;21.05;45.95
13767;BME280;47980;48.794;9.176;2023-04-23T10:36:01;97477.31;;;21.10;45.52
13767;BME280;47980;48.794;9.176;2023-04-23T10:38:33;97468.19;;;21.71;45.23
13767;BME280;47980;48.794;9.176;2023-04-23T10:41:06;97468.09;;;21.31;45.48
13767;BME280;47980;48.794;9.176;2023-04-23T10:43:39;97467.94;;;21.19;47.76
13767;BME280;47980;48.794;9.176;2023-04-23T10:46:26;97470.38;;;21.36;46.93
13767;BME280;47980;48.794;9.176;2023-04-23T10:49:07;97452.63;;;21.99;43.43
13767;BME280;47980;48.794;9.176;2023-04-23T10:51:45;97465.78;;;21.97;43.37
13767;BME280;47980;48.794;9.176;2023-04-23T10:54:18;97461.69;;;21.88;43.01
13767;BME280;47980;48.794;9.176;2023-04-23T10:56:57;97460.72;;;21.59;44.41
13767;BME280;47980;48.794;9.176;2023-04-23T10:59:30;97449.16;;;21.78;42.99
13767;BME280;47980;48.794;9.176;2023-04-23T11:02:05;97446.91;;;22.17;42.39
13767;BME280;47980;48.794;9.176;2023-04-23T11:04:44;97440.31;;;21.58;43.19
13767;BME280;47980;48.794;9.176;2023-04-23T11:07:17;97439.81;;;21.63;43.08
13767;BME280;47980;48.794;9.176;2023-04-23T11:09:50;97432.63;;;21.96;42.08
13767;BME280;47980;48.794;9.176;2023-04-23T11:12:32;97430.28;;;21.98;42.80
13767;BME280;47980;48.794;9.176;2023-04-23T11:15:11;97427.00;;;22.27;42.66
13767;BME280;47980;48.794;9.176;2023-04-23T11:17:59;97420.72;;;22.82;41.39
13767;BME280;47980;48.794;9.176;2023-04-23T11:20:34;97436.78;;;22.73;41.91
13767;BME280;47980;48.794;9.176;2023-04-23T11:23:06;97430.38;;;22.11;43.11
13767;BME280;47980;48.794;9.176;2023-04-23T11:25:40;97423.41;;;21.74;43.09
13767;BME280;47980;48.794;9.176;2023-04-23T11:28:12;97422.50;;;21.41;44.06
13767;BME280;47980;48.794;9.176;2023-04-23T11:33:20;97419.88;;;21.77;44.19
13767;BME280;47980;48.794;9.176;2023-04-23T11:38:30;97410.13;;;21.83;43.11
13767;BME280;47980;48.794;9.176;2023-04-23T11:41:02;97415.31;;;21.74;43.93
13767;BME280;47980;48.794;9.176;2023-04-23T11:43:34;97401.28;;;21.82;43.74
13767;BME280;47980;48.794;9.176;2023-04-23T11:46:06;97392.13;;;22.32;42.86
13767;BME280;47980;48.794;9.176;2023-04-23T11:48:38;97385.63;;;22.10;41.34
13767;BME280;47980;48.794;9.176;2023-04-23T11:51:11;97382.03;;;21.97;42.17
13767;BME280;47980;48.794;9.176;2023-04-23T11:53:45;97377.03;;;22.51;41.67
13767;BME280;47980;48.794;9.176;2023-04-23T11:56:16;97379.09;;;21.91;42.35
13767;BME280;47980;48.794;9.176;2023-04-23T11:58:57;97371.50;;;21.66;42.20
13767;BME280;47980;48.794;9.176;2023-04-23T12:01:45;97364.81;;;21.91;42.61
13767;BME280;47980;48.794;9.176;2023-04-23T12:04:19;97357.03;;;21.56;42.23
13767;BME280;47980;48.794;9.176;2023-04-23T12:06:53;97353.19;;;22.30;42.33
13767;BME280;47980;48.794;9.176;2023-04-23T12:09:27;97354.28;;;22.32;42.29
13767;BME280;47980;48.794;9.176;2023-04-23T12:11:58;97350.13;;;21.35;44.07
13767;BME280;47980;48.794;9.176;2023-04-23T12:14:30;97346.28;;;21.09;45.42
13767;BME280;47980;48.794;9.176;2023-04-23T12:17:08;97343.56;;;21.33;45.03
13767;BME280;47980;48.794;9.176;2023-04-23T12:22:15;97345.03;;;21.77;44.34
13767;BME280;47980;48.794;9.176;2023-04-23T12:24:48;97333.56;;;20.90;44.98
13767;BME280;47980;48.794;9.176;2023-04-23T12:27:24;97333.41;;;21.21;44.82
13767;BME280;47980;48.794;9.176;2023-04-23T12:30:00;97337.13;;;21.07;45.50
13767;BME280;47980;48.794;9.176;2023-04-23T12:32:32;97334.63;;;21.16;44.88
13767;BME280;47980;48.794;9.176;2023-04-23T12:35:05;97324.63;;;21.56;44.63
13767;BME280;47980;48.794;9.176;2023-04-23T12:37:47;97323.66;;;22.03;42.71
13767;BME280;47980;48.794;9.176;2023-04-23T12:40:19;97322.00;;;22.25;44.30
13767;BME280;47980;48.794;9.176;2023-04-23T12:42:52;97318.56;;;22.57;42.48
13767;BME280;47980;48.794;9.176;2023-04-23T12:45:23;97314.38;;;21.68;43.41
13767;BME280;47980;48.794;9.176;2023-04-23T12:47:55;97309.63;;;21.55;44.56
13767;BME280;47980;48.794;9.176;2023-04-23T12:50:26;97295.31;;;22.44;42.96
13767;BME280;47980;48.794;9.176;2023-04-23T12:52:59;97294.28;;;22.05;43.51
13767;BME280;47980;48.794;9.176;2023-04-23T12:55:31;97297.63;;;21.93;43.68
13767;BME280;47980;48.794;9.176;2023-04-23T12:58:02;97292.53;;;21.78;44.32
13767;BME280;47980;48.794;9.176;2023-04-23T13:00:34;97287.97;;;22.11;43.34
13767;BME280;47980;48.794;9.176;2023-04-23T13:03:06;97285.47;;;21.48;43.82
13767;BME280;47980;48.794;9.176;2023-04-23T13:05:37;97280.00;;;21.52;44.51
13767;BME280;47980;48.794;9.176;2023-04-23T13:08:10;97266.91;;;21.86;43.45
13767;BME280;47980;48.794;9.176;2023-04-23T13:10:42;97261.97;;;22.34;44.13
13767;BME280;47980;48.794;9.176;2023-04-23T13:13:14;97250.09;;;22.77;41.58
13767;BME280;47980;48.794;9.176;2023-04-23T13:15:45;97253.41;;;22.68;42.95
13767;BME280;47980;48.794;9.176;2023-04-23T13:18:17;97237.59;;;22.67;42.48
13767;BME280;47980;48.794;9.176;2023-04-23T13:20:48;97241.50;;;22.00;43.46
13767;BME280;47980;48.794;9.176;2023-04-23T13:23:21;97220.72;;;22.63;42.50
13767;BME280;47980;48.794;9.176;2023-04-23T13:25:53;97232.47;;;22.85;42.67
13767;BME280;47980;48.794;9.176;2023-04-23T13:28:25;97215.41;;;23.17;40.04
13767;BME280;47980;48.794;9.176;2023-04-23T13:30:56;97213.00;;;22.61;38.58
13767;BME280;47980;48.794;9.176;2023-04-23T13:33:28;97201.22;;;22.55;38.68